createdAt,value
2023-04-04T00:00:53.680Z,73.69
2023-04-04T00:03:22.473Z,74.54
2023-04-04T00:05:51.607Z,74.04
2023-04-04T00:08:18.246Z,74.02
2023-04-04T00:10:46.734Z,73.89
2023-04-04T00:13:16.454Z,74.13
2023-04-04T00:16:15.468Z,74.50
2023-04-04T00:18:42.248Z,74.03
2023-04-04T00:21:15.654Z,73.93
2023-04-04T00:23:42.275Z,74.38
2023-04-04T00:26:10.506Z,74.09
2023-04-04T00:28:40.543Z,74.38
2023-04-04T00:31:08.284Z,74.70
2023-04-04T00:33:40.298Z,74.56
2023-04-04T00:36:16.101Z,74.81
2023-04-04T00:38:44.282Z,75.13
2023-04-04T00:41:12.344Z,75.04
2023-04-04T00:43:40.709Z,75.63
2023-04-04T00:46:14.930Z,75.68
2023-04-04T00:48:42.503Z,75.42
2023-04-04T00:51:41.623Z,75.91
2023-04-04T00:54:09.094Z,76.02
2023-04-04T00:56:38.673Z,75.78
2023-04-04T00:59:07.615Z,76.06
2023-04-04T01:01:37.033Z,75.57
2023-04-04T01:04:30.397Z,75.82
2023-04-04T01:06:58.388Z,76.06
2023-04-04T01:12:22.360Z,75.89
2023-04-04T01:15:16.502Z,75.78
2023-04-04T01:17:47.112Z,76.48
2023-04-04T01:20:16.193Z,75.70
2023-04-04T01:22:51.054Z,76.31
2023-04-04T01:28:22.304Z,76.13
2023-04-04T01:34:04.747Z,76.26
2023-04-04T01:36:46.149Z,75.75
2023-04-04T01:39:39.651Z,75.66
2023-04-04T01:42:09.415Z,75.76
2023-04-04T01:44:38.431Z,75.82
2023-04-04T01:47:08.683Z,76.24
2023-04-04T01:49:36.277Z,76.74
2023-04-04T01:52:10.465Z,76.59
2023-04-04T01:55:04.560Z,76.87
2023-04-04T01:57:32.324Z,76.69
2023-04-04T02:00:00.332Z,76.56
2023-04-04T02:02:33.364Z,76.28
2023-04-04T02:05:00.257Z,76.77
2023-04-04T02:07:33.510Z,76.52
2023-04-04T02:10:05.868Z,77.22
2023-04-04T02:12:34.274Z,77.33
2023-04-04T02:15:06.870Z,77.42
2023-04-04T02:17:36.530Z,77.29
2023-04-04T02:20:08.638Z,77.47
2023-04-04T02:22:36.319Z,77.56
2023-04-04T02:25:08.666Z,77.08
2023-04-04T02:27:36.400Z,77.06
2023-04-04T02:30:04.539Z,77.21
2023-04-04T02:32:32.632Z,76.94
2023-04-04T02:35:00.249Z,77.21
2023-04-04T02:37:28.371Z,76.60
2023-04-04T02:40:22.319Z,77.44
2023-04-04T02:43:19.335Z,76.99
2023-04-04T02:45:49.117Z,77.08
2023-04-04T02:51:18.510Z,77.33
2023-04-04T02:53:46.959Z,76.82
2023-04-04T02:56:29.266Z,77.05
2023-04-04T02:58:58.526Z,76.60
2023-04-04T03:01:32.336Z,76.83
2023-04-04T03:06:56.500Z,77.88
2023-04-04T03:09:24.231Z,78.08
2023-04-04T03:12:16.457Z,77.94
2023-04-04T03:14:44.231Z,77.23
2023-04-04T03:20:15.004Z,77.88
2023-04-04T03:22:44.705Z,77.03
2023-04-04T03:25:12.242Z,77.36
2023-04-04T03:27:44.329Z,77.97
2023-04-04T03:30:18.411Z,77.98
2023-04-04T03:32:46.302Z,77.79
2023-04-04T03:38:09.341Z,78.23
2023-04-04T03:40:36.822Z,78.13
2023-04-04T03:43:10.310Z,78.18
2023-04-04T03:45:38.454Z,78.33
2023-04-04T03:48:33.656Z,78.29
2023-04-04T03:51:10.545Z,78.32
2023-04-04T03:53:40.239Z,78.67
2023-04-04T03:56:08.375Z,77.96
2023-04-04T03:58:36.710Z,77.75
2023-04-04T04:01:12.243Z,78.63
2023-04-04T04:03:40.389Z,78.69
2023-04-04T04:06:08.283Z,79.01
2023-04-04T04:08:36.605Z,78.79
2023-04-04T04:11:06.015Z,78.23
2023-04-04T04:13:38.962Z,77.77
2023-04-04T04:16:07.447Z,77.82
2023-04-04T04:18:41.325Z,78.01
2023-04-04T04:21:14.360Z,78.12
2023-04-04T04:24:06.676Z,77.58
2023-04-04T04:26:34.212Z,77.91
2023-04-04T04:29:02.513Z,78.77
2023-04-04T04:31:37.411Z,78.86
2023-04-04T04:34:08.726Z,78.91
2023-04-04T04:36:38.271Z,78.00
2023-04-04T04:39:30.429Z,78.28
2023-04-04T04:45:16.581Z,78.38
2023-04-04T04:47:54.843Z,78.59
2023-04-04T04:50:27.490Z,78.01
2023-04-04T04:52:54.270Z,78.07
2023-04-04T04:58:16.888Z,77.94
2023-04-04T05:00:48.326Z,78.09
2023-04-04T05:03:16.325Z,78.02
2023-04-04T05:05:48.393Z,78.19
2023-04-04T05:11:32.266Z,78.63
2023-04-04T05:14:05.426Z,78.79
2023-04-04T05:16:38.283Z,78.30
2023-04-04T05:19:17.294Z,79.09
2023-04-04T05:21:50.249Z,78.90
2023-04-04T05:24:28.608Z,78.91
2023-04-04T05:26:56.261Z,79.33
2023-04-04T05:29:24.258Z,78.81
2023-04-04T05:31:56.419Z,79.03
2023-04-04T05:34:24.233Z,78.74
2023-04-04T05:36:53.003Z,79.04
2023-04-04T05:39:20.232Z,78.54
2023-04-04T05:42:05.474Z,79.12
2023-04-04T05:44:37.234Z,78.46
2023-04-04T05:47:06.314Z,78.71
2023-04-04T05:49:34.237Z,77.62
2023-04-04T05:52:02.547Z,78.18
2023-04-04T05:54:32.290Z,79.10
2023-04-04T05:57:04.246Z,78.00
2023-04-04T05:59:44.826Z,78.07
2023-04-04T06:02:20.318Z,79.35
2023-04-04T06:04:59.226Z,79.20
2023-04-04T06:07:44.321Z,78.40
2023-04-04T06:10:14.267Z,77.94
2023-04-04T06:12:43.060Z,77.71
2023-04-04T06:15:12.337Z,77.99
2023-04-04T06:17:42.340Z,77.30
2023-04-04T06:23:04.465Z,77.19
2023-04-04T06:25:38.437Z,76.62
2023-04-04T06:28:06.282Z,76.45
2023-04-04T06:30:38.297Z,76.31
2023-04-04T06:33:08.578Z,75.78
2023-04-04T06:35:44.758Z,76.95
2023-04-04T06:38:14.279Z,76.65
2023-04-04T06:40:43.089Z,76.21
2023-04-04T06:43:36.278Z,76.01
2023-04-04T06:46:54.152Z,75.72
2023-04-04T06:49:25.624Z,75.93
2023-04-04T06:51:54.307Z,75.57
2023-04-04T06:54:27.405Z,76.11
2023-04-04T06:56:54.274Z,75.57
2023-04-04T06:59:22.337Z,74.69
2023-04-04T07:01:54.319Z,74.01
2023-04-04T07:04:22.382Z,73.31
2023-04-04T07:06:55.627Z,73.96
2023-04-04T07:09:28.827Z,73.23
2023-04-04T07:12:22.399Z,74.05
2023-04-04T07:14:52.014Z,71.86
2023-04-04T07:17:44.804Z,71.96
2023-04-04T07:20:12.701Z,71.34
2023-04-04T07:22:40.975Z,70.99
2023-04-04T07:25:09.549Z,70.64
2023-04-04T07:28:10.020Z,70.57
2023-04-04T07:30:42.806Z,68.87
2023-04-04T07:33:16.542Z,69.49
2023-04-04T07:35:49.257Z,68.97
2023-04-04T07:38:21.408Z,69.09
2023-04-04T07:40:51.365Z,68.29
2023-04-04T07:43:23.267Z,66.83
2023-04-04T07:45:50.488Z,65.02
2023-04-04T07:48:28.111Z,65.62
2023-04-04T07:50:56.336Z,65.06
2023-04-04T07:53:24.230Z,61.85
2023-04-04T07:55:52.240Z,64.09
2023-04-04T07:58:21.649Z,63.93
2023-04-04T08:00:48.324Z,62.01
2023-04-04T08:06:08.178Z,59.33
2023-04-04T08:08:36.223Z,58.21
2023-04-04T08:11:04.341Z,59.16
2023-04-04T08:13:36.272Z,58.44
2023-04-04T08:16:04.722Z,59.18
2023-04-04T08:18:34.685Z,55.41
2023-04-04T08:21:05.959Z,57.36
2023-04-04T08:23:34.665Z,54.00
2023-04-04T08:28:54.562Z,54.42
2023-04-04T08:31:23.567Z,53.80
2023-04-04T08:34:16.489Z,52.96
2023-04-04T08:36:44.224Z,58.05
2023-04-04T08:39:17.530Z,54.90
2023-04-04T08:41:46.026Z,55.08
2023-04-04T08:44:25.430Z,49.98
2023-04-04T08:46:52.372Z,49.21
2023-04-04T08:49:22.175Z,51.99
2023-04-04T08:51:57.206Z,55.32
2023-04-04T08:54:31.172Z,53.49
2023-04-04T08:56:58.305Z,49.37
2023-04-04T08:59:26.817Z,53.45
2023-04-04T09:02:14.362Z,48.57
2023-04-04T09:04:58.256Z,48.57
2023-04-04T09:07:33.002Z,47.78
2023-04-04T09:10:01.764Z,48.68
2023-04-04T09:12:32.488Z,50.99
2023-04-04T09:15:01.234Z,51.11
2023-04-04T09:17:28.468Z,50.43
2023-04-04T09:19:56.520Z,51.66
2023-04-04T09:22:24.229Z,51.38
2023-04-04T09:24:53.020Z,51.18
2023-04-04T09:27:25.751Z,49.21
2023-04-04T09:29:54.284Z,49.74
2023-04-04T09:32:29.982Z,49.54
2023-04-04T09:34:58.252Z,50.79
2023-04-04T09:37:30.557Z,49.27
2023-04-04T09:39:58.348Z,45.25
2023-04-04T09:42:31.474Z,45.73
2023-04-04T09:44:58.889Z,45.50
2023-04-04T09:50:23.648Z,44.23
2023-04-04T09:53:17.926Z,42.29
2023-04-04T09:55:51.487Z,46.65
2023-04-04T10:01:18.613Z,46.50
2023-04-04T10:03:59.395Z,44.64
2023-04-04T10:06:27.218Z,42.84
2023-04-04T10:09:25.794Z,46.73
2023-04-04T10:12:09.639Z,38.34
2023-04-04T10:14:36.595Z,42.93
2023-04-04T10:17:10.547Z,45.44
2023-04-04T10:20:06.332Z,43.76
2023-04-04T10:22:35.603Z,45.24
2023-04-04T10:27:58.228Z,43.66
2023-04-04T10:31:06.459Z,41.83
2023-04-04T10:33:42.994Z,44.27
2023-04-04T10:36:21.531Z,40.13
2023-04-04T10:38:56.111Z,37.96
2023-04-04T10:41:27.105Z,39.85
2023-04-04T10:43:56.839Z,40.20
2023-04-04T10:46:30.820Z,41.16
2023-04-04T10:49:04.762Z,42.61
2023-04-04T10:54:27.546Z,44.21
2023-04-04T10:56:56.588Z,42.71
2023-04-04T10:59:25.378Z,39.73
2023-04-04T11:02:02.733Z,37.96
2023-04-04T11:04:35.602Z,41.96
2023-04-04T11:07:09.409Z,40.64
2023-04-04T11:09:51.791Z,41.74
2023-04-04T11:12:26.753Z,40.98
2023-04-04T11:15:09.858Z,41.06
2023-04-04T11:17:54.479Z,39.25
2023-04-04T11:20:24.749Z,46.61
2023-04-04T11:23:10.045Z,38.98
2023-04-04T11:25:42.353Z,36.69
2023-04-04T11:28:25.417Z,40.46
2023-04-04T11:31:34.900Z,39.75
2023-04-04T11:34:09.892Z,41.02
2023-04-04T11:37:25.319Z,42.25
2023-04-04T11:39:58.910Z,41.08
2023-04-04T11:42:33.925Z,41.05
2023-04-04T11:45:07.510Z,40.45
2023-04-04T11:47:34.962Z,44.27
2023-04-04T11:50:08.285Z,43.69
2023-04-04T11:52:42.849Z,39.12
2023-04-04T11:55:18.113Z,43.75
2023-04-04T11:57:48.055Z,40.89
2023-04-04T12:00:32.145Z,38.25
2023-04-04T12:03:05.559Z,45.08
2023-04-04T12:05:32.711Z,44.04
2023-04-04T12:08:02.318Z,41.10
2023-04-04T12:10:35.591Z,38.56
2023-04-04T12:13:05.566Z,41.92
2023-04-04T12:15:33.778Z,41.92
2023-04-04T12:18:25.810Z,41.06
2023-04-04T12:20:56.723Z,44.29
2023-04-04T12:23:24.334Z,42.06
2023-04-04T12:25:59.888Z,42.63
2023-04-04T12:28:28.510Z,41.51
2023-04-04T12:30:56.705Z,40.56
2023-04-04T12:33:24.405Z,42.14
2023-04-04T12:35:53.464Z,43.28
2023-04-04T12:38:20.453Z,43.16
2023-04-04T12:40:53.333Z,39.83
2023-04-04T12:43:20.875Z,42.69
2023-04-04T12:45:51.986Z,38.66
2023-04-04T12:48:29.893Z,41.94
2023-04-04T12:51:05.621Z,39.52
2023-04-04T12:53:33.261Z,43.22
2023-04-04T12:56:08.317Z,42.19
2023-04-04T12:58:40.337Z,40.05
2023-04-04T13:01:09.336Z,38.28
2023-04-04T13:03:37.911Z,40.65
2023-04-04T13:06:19.984Z,45.14
2023-04-04T13:08:55.298Z,42.15
2023-04-04T13:11:23.165Z,40.13
2023-04-04T13:14:03.468Z,40.49
2023-04-04T13:16:38.244Z,40.17
2023-04-04T13:19:06.681Z,43.29
2023-04-04T13:24:50.222Z,38.80
2023-04-04T13:27:22.490Z,42.53
2023-04-04T13:29:50.245Z,42.14
2023-04-04T13:32:18.258Z,39.43
2023-04-04T13:34:51.385Z,41.44
2023-04-04T13:37:18.720Z,42.71
2023-04-04T13:40:11.209Z,41.15
2023-04-04T13:42:43.255Z,36.75
2023-04-04T13:45:10.751Z,40.82
2023-04-04T13:47:43.309Z,42.57
2023-04-04T13:50:10.501Z,38.69
2023-04-04T13:55:30.597Z,42.57
2023-04-04T13:57:58.319Z,39.83
2023-04-04T14:00:26.706Z,42.29
2023-04-04T14:05:52.221Z,42.59
2023-04-04T14:08:20.217Z,43.96
2023-04-04T14:10:48.257Z,40.36
2023-04-04T14:13:20.254Z,41.01
2023-04-04T14:15:53.274Z,42.00
2023-04-04T14:18:20.288Z,41.64
2023-04-04T14:20:53.213Z,40.73
2023-04-04T14:23:21.466Z,40.07
2023-04-04T14:25:50.591Z,40.61
2023-04-04T14:28:18.844Z,39.84
2023-04-04T14:30:46.300Z,40.19
2023-04-04T14:33:14.410Z,44.90
2023-04-04T14:35:42.489Z,43.06
2023-04-04T14:41:06.580Z,40.27
2023-04-04T14:43:58.254Z,40.74
2023-04-04T14:46:26.344Z,41.71
2023-04-04T14:48:54.364Z,41.42
2023-04-04T14:51:22.292Z,39.52
2023-04-04T14:53:54.255Z,38.82
2023-04-04T14:56:23.469Z,40.60
2023-04-04T14:58:52.288Z,39.01
2023-04-04T15:01:22.629Z,37.72
2023-04-04T15:09:34.268Z,40.34
2023-04-04T15:12:02.470Z,40.67
2023-04-04T15:14:30.288Z,39.70
2023-04-04T15:17:02.330Z,39.52
2023-04-04T15:19:30.519Z,42.30
2023-04-04T15:22:03.361Z,42.45
2023-04-04T15:24:36.290Z,41.96
2023-04-04T15:27:04.278Z,40.66
2023-04-04T15:29:37.245Z,42.28
2023-04-04T15:32:04.275Z,42.86
2023-04-04T15:37:24.798Z,41.86
2023-04-04T15:39:53.806Z,41.86
2023-04-04T15:42:22.396Z,41.17
2023-04-04T15:44:50.266Z,42.78
2023-04-04T15:47:18.259Z,44.06
2023-04-04T15:49:46.307Z,43.53
2023-04-04T15:52:14.222Z,43.94
2023-04-04T15:54:42.250Z,42.56
2023-04-04T15:57:10.290Z,42.63
2023-04-04T15:59:38.248Z,43.81
2023-04-04T16:02:06.916Z,43.09
2023-04-04T16:04:36.709Z,45.22
2023-04-04T16:07:04.330Z,42.60
2023-04-04T16:09:32.296Z,43.60
2023-04-04T16:12:24.615Z,45.25
2023-04-04T16:14:52.302Z,44.02
2023-04-04T16:17:25.284Z,46.63
2023-04-04T16:19:52.319Z,44.52
2023-04-04T16:22:20.328Z,44.02
2023-04-04T16:24:48.259Z,45.39
2023-04-04T16:27:16.657Z,45.44
2023-04-04T16:29:44.228Z,44.65
2023-04-04T16:32:37.327Z,45.92
2023-04-04T16:35:04.557Z,44.74
2023-04-04T16:37:58.422Z,45.84
2023-04-04T16:40:28.712Z,44.92
2023-04-04T16:42:58.480Z,45.34
2023-04-04T16:45:27.110Z,46.53
2023-04-04T16:47:54.277Z,46.79
2023-04-04T16:50:22.285Z,48.51
2023-04-04T16:53:15.079Z,49.07
2023-04-04T16:55:42.341Z,48.24
2023-04-04T16:58:10.264Z,47.56
2023-04-04T17:00:38.893Z,47.11
2023-04-04T17:03:06.596Z,47.98
2023-04-04T17:05:34.506Z,47.17
2023-04-04T17:08:02.334Z,47.38
2023-04-04T17:10:31.302Z,50.19
2023-04-04T17:13:24.559Z,47.14
2023-04-04T17:15:52.708Z,47.83
2023-04-04T17:18:45.586Z,46.06
2023-04-04T17:21:17.326Z,46.13
2023-04-04T17:23:48.286Z,47.48
2023-04-04T17:26:19.217Z,48.46
2023-04-04T17:28:49.206Z,50.73
2023-04-04T17:31:16.525Z,51.54
2023-04-04T17:33:45.369Z,52.52
2023-04-04T17:36:12.329Z,51.60
2023-04-04T17:38:40.359Z,52.21
2023-04-04T17:41:14.776Z,52.57
2023-04-04T17:43:42.309Z,53.48
2023-04-04T17:49:08.753Z,54.28
2023-04-04T17:52:12.399Z,54.80
2023-04-04T17:54:41.182Z,55.52
2023-04-04T17:57:34.325Z,55.86
2023-04-04T18:00:11.981Z,56.44
2023-04-04T18:02:54.482Z,56.73
2023-04-04T18:05:22.862Z,57.09
2023-04-04T18:07:58.618Z,57.21
2023-04-04T18:10:26.333Z,57.74
2023-04-04T18:12:54.362Z,58.23
2023-04-04T18:15:24.967Z,58.68
2023-04-04T18:17:52.991Z,59.00
2023-04-04T18:20:42.614Z,59.20
2023-04-04T18:23:13.961Z,60.00
2023-04-04T18:25:42.958Z,59.17
2023-04-04T18:28:10.294Z,60.38
2023-04-04T18:30:39.001Z,61.08
2023-04-04T18:33:14.532Z,61.16
2023-04-04T18:38:34.258Z,61.89
2023-04-04T18:41:03.326Z,62.60
2023-04-04T18:43:30.233Z,62.50
2023-04-04T18:52:08.317Z,62.60
2023-04-04T18:54:40.420Z,62.88
2023-04-04T18:57:08.192Z,63.10
2023-04-04T18:59:43.323Z,63.33
2023-04-04T19:05:13.306Z,63.49
2023-04-04T19:07:41.929Z,64.09
2023-04-04T19:10:18.314Z,63.68
2023-04-04T19:12:46.245Z,64.23
2023-04-04T19:15:14.709Z,64.81
2023-04-04T19:17:44.715Z,64.60
2023-04-04T19:20:13.068Z,64.46
2023-04-04T19:22:46.278Z,65.32
2023-04-04T19:28:10.424Z,65.55
2023-04-04T19:30:47.145Z,65.28
2023-04-04T19:33:22.993Z,64.81
2023-04-04T19:41:48.261Z,66.60
2023-04-04T19:44:23.122Z,66.47
2023-04-04T19:46:50.350Z,67.17
2023-04-04T19:49:24.208Z,67.34
2023-04-04T19:52:01.448Z,67.69
2023-04-04T19:54:41.505Z,67.21
2023-04-04T19:57:20.455Z,67.12
2023-04-04T20:00:01.504Z,67.75
2023-04-04T20:02:47.955Z,67.82
2023-04-04T20:05:40.727Z,67.31
2023-04-04T20:08:17.431Z,68.13
2023-04-04T20:10:44.571Z,67.93
2023-04-04T20:13:14.018Z,68.01
2023-04-04T20:15:52.277Z,67.65
2023-04-04T20:18:24.585Z,67.70
2023-04-04T20:21:06.471Z,68.29
2023-04-04T20:23:45.586Z,68.13
2023-04-04T20:26:45.908Z,68.95
2023-04-04T20:29:15.945Z,68.70
2023-04-04T20:31:51.275Z,69.11
2023-04-04T20:34:46.714Z,68.80
2023-04-04T20:37:20.860Z,69.19
2023-04-04T20:39:59.114Z,69.70
2023-04-04T20:42:29.179Z,69.69
2023-04-04T20:45:37.941Z,69.70
2023-04-04T20:48:34.909Z,70.16
2023-04-04T20:51:04.658Z,69.63
2023-04-04T20:53:32.765Z,69.78
2023-04-04T20:56:01.355Z,70.09
2023-04-04T20:58:54.348Z,70.31
2023-04-04T21:04:31.442Z,69.64
2023-04-04T21:06:58.324Z,70.03
2023-04-04T21:09:31.400Z,70.13
2023-04-04T21:12:01.779Z,69.96
2023-04-04T21:14:36.107Z,70.28
2023-04-04T21:17:28.274Z,70.40
2023-04-04T21:20:00.582Z,70.82
2023-04-04T21:22:28.286Z,70.33
2023-04-04T21:24:56.272Z,69.81
2023-04-04T21:27:34.530Z,70.42
2023-04-04T21:30:08.220Z,71.62
2023-04-04T21:32:36.347Z,71.63
2023-04-04T21:35:46.789Z,71.80
2023-04-04T21:38:33.332Z,71.92
2023-04-04T21:41:02.438Z,72.08
2023-04-04T21:43:30.387Z,72.22
2023-04-04T21:45:58.246Z,72.36
2023-04-04T21:48:26.366Z,72.82
2023-04-04T21:50:58.287Z,73.08
2023-04-04T21:53:31.317Z,72.43
2023-04-04T21:55:58.271Z,72.51
2023-04-04T21:58:26.496Z,72.61
2023-04-04T22:00:54.195Z,71.69
2023-04-04T22:03:22.284Z,73.16
2023-04-04T22:05:50.510Z,72.38
2023-04-04T22:08:18.284Z,71.95
2023-04-04T22:10:47.558Z,71.99
2023-04-04T22:13:14.822Z,71.98
2023-04-04T22:15:52.464Z,71.48
2023-04-04T22:18:30.479Z,72.47
2023-04-04T22:21:02.944Z,73.10
2023-04-04T22:23:36.321Z,73.39
2023-04-04T22:26:14.194Z,73.81
2023-04-04T22:28:45.670Z,73.41
2023-04-04T22:31:15.571Z,72.78
2023-04-04T22:33:47.298Z,72.62
2023-04-04T22:36:15.985Z,73.56
2023-04-04T22:38:49.316Z,73.92
2023-04-04T22:41:16.290Z,72.95
2023-04-04T22:43:48.221Z,73.94
2023-04-04T22:46:16.976Z,73.17
2023-04-04T22:48:54.319Z,72.61
2023-04-04T22:51:22.573Z,72.66
2023-04-04T22:53:57.868Z,72.74
2023-04-04T22:56:26.327Z,72.41
2023-04-04T23:01:46.374Z,72.67
2023-04-04T23:04:14.295Z,72.86
2023-04-04T23:06:42.945Z,73.59
2023-04-04T23:09:15.417Z,73.47
2023-04-04T23:11:42.328Z,74.06
2023-04-04T23:14:14.992Z,73.77
2023-04-04T23:16:42.675Z,73.74
2023-04-04T23:19:15.341Z,74.11
2023-04-04T23:21:47.256Z,74.18
2023-04-04T23:24:14.263Z,74.32
2023-04-04T23:26:42.210Z,74.75
2023-04-04T23:29:39.206Z,74.32
2023-04-04T23:32:06.383Z,73.95
2023-04-04T23:34:38.240Z,73.92
2023-04-04T23:37:06.292Z,73.26
2023-04-04T23:39:34.276Z,74.35
2023-04-04T23:42:02.663Z,74.30
2023-04-04T23:47:22.328Z,74.58
2023-04-04T23:53:06.305Z,75.13
2023-04-04T23:55:58.280Z,75.09
2023-04-04T23:58:28.212Z,74.84
